sensor_id;sensor_type;location;lat;lon;timestamp;P1;durP1;ratioP1;P2;durP2;ratioP2
49860;SDS011;35761;48.826;9.238;2023-05-21T00:02:37;16.70;;;10.95;;
49860;SDS011;35761;48.826;9.238;2023-05-21T00:05:08;18.13;;;11.00;;
49860;SDS011;35761;48.826;9.238;2023-05-21T00:07:41;14.57;;;11.02;;
49860;SDS011;35761;48.826;9.238;2023-05-21T00:10:11;14.18;;;10.70;;
49860;SDS011;35761;48.826;9.238;2023-05-21T00:12:44;12.68;;;10.23;;
49860;SDS011;35761;48.826;9.238;2023-05-21T00:15:15;18.40;;;11.77;;
49860;SDS011;35761;48.826;9.238;2023-05-21T00:17:48;13.20;;;11.05;;
49860;SDS011;35761;48.826;9.238;2023-05-21T00:20:18;16.25;;;10.68;;
49860;SDS011;35761;48.826;9.238;2023-05-21T00:22:49;16.50;;;10.77;;
49860;SDS011;35761;48.826;9.238;2023-05-21T00:25:19;17.05;;;11.50;;
49860;SDS011;35761;48.826;9.238;2023-05-21T00:27:52;15.30;;;11.68;;
49860;SDS011;35761;48.826;9.238;2023-05-21T00:30:23;15.02;;;12.02;;
49860;SDS011;35761;48.826;9.238;2023-05-21T00:32:54;18.15;;;12.43;;
49860;SDS011;35761;48.826;9.238;2023-05-21T00:35:28;17.10;;;11.77;;
49860;SDS011;35761;48.826;9.238;2023-05-21T00:37:59;13.77;;;11.70;;
49860;SDS011;35761;48.826;9.238;2023-05-21T00:40:30;15.88;;;12.95;;
49860;SDS011;35761;48.826;9.238;2023-05-21T00:43:04;16.25;;;11.50;;
49860;SDS011;35761;48.826;9.238;2023-05-21T00:45:36;17.35;;;12.60;;
49860;SDS011;35761;48.826;9.238;2023-05-21T00:48:06;18.60;;;12.60;;
49860;SDS011;35761;48.826;9.238;2023-05-21T00:50:37;18.67;;;12.75;;
49860;SDS011;35761;48.826;9.238;2023-05-21T00:53:09;15.00;;;12.15;;
49860;SDS011;35761;48.826;9.238;2023-05-21T00:55:45;28.40;;;12.32;;
49860;SDS011;35761;48.826;9.238;2023-05-21T00:58:18;19.48;;;12.75;;
49860;SDS011;35761;48.826;9.238;2023-05-21T01:00:49;21.88;;;13.05;;
49860;SDS011;35761;48.826;9.238;2023-05-21T01:03:24;15.57;;;12.88;;
49860;SDS011;35761;48.826;9.238;2023-05-21T01:05:55;17.70;;;13.30;;
49860;SDS011;35761;48.826;9.238;2023-05-21T01:08:26;17.23;;;12.68;;
49860;SDS011;35761;48.826;9.238;2023-05-21T01:10:57;16.17;;;12.90;;
49860;SDS011;35761;48.826;9.238;2023-05-21T01:13:32;18.08;;;13.05;;
49860;SDS011;35761;48.826;9.238;2023-05-21T01:16:08;19.15;;;13.68;;
49860;SDS011;35761;48.826;9.238;2023-05-21T01:18:40;18.65;;;12.93;;
49860;SDS011;35761;48.826;9.238;2023-05-21T01:21:11;16.30;;;12.52;;
49860;SDS011;35761;48.826;9.238;2023-05-21T01:23:45;21.60;;;14.48;;
49860;SDS011;35761;48.826;9.238;2023-05-21T01:26:17;21.90;;;13.88;;
49860;SDS011;35761;48.826;9.238;2023-05-21T01:28:47;19.95;;;14.38;;
49860;SDS011;35761;48.826;9.238;2023-05-21T01:31:29;20.63;;;14.55;;
49860;SDS011;35761;48.826;9.238;2023-05-21T01:34:09;16.80;;;13.25;;
49860;SDS011;35761;48.826;9.238;2023-05-21T01:36:42;22.63;;;13.82;;
49860;SDS011;35761;48.826;9.238;2023-05-21T01:39:31;15.75;;;13.45;;
49860;SDS011;35761;48.826;9.238;2023-05-21T01:42:09;19.98;;;14.57;;
49860;SDS011;35761;48.826;9.238;2023-05-21T01:44:39;21.00;;;13.88;;
49860;SDS011;35761;48.826;9.238;2023-05-21T01:47:11;16.88;;;14.60;;
49860;SDS011;35761;48.826;9.238;2023-05-21T01:49:43;20.65;;;13.93;;
49860;SDS011;35761;48.826;9.238;2023-05-21T01:52:14;17.63;;;14.15;;
49860;SDS011;35761;48.826;9.238;2023-05-21T01:54:47;17.73;;;14.18;;
49860;SDS011;35761;48.826;9.238;2023-05-21T01:57:20;21.73;;;14.65;;
49860;SDS011;35761;48.826;9.238;2023-05-21T01:59:50;20.23;;;14.75;;
49860;SDS011;35761;48.826;9.238;2023-05-21T02:02:21;17.35;;;13.85;;
49860;SDS011;35761;48.826;9.238;2023-05-21T02:04:52;25.33;;;14.23;;
49860;SDS011;35761;48.826;9.238;2023-05-21T02:07:23;22.60;;;14.10;;
49860;SDS011;35761;48.826;9.238;2023-05-21T02:09:57;23.42;;;14.48;;
49860;SDS011;35761;48.826;9.238;2023-05-21T02:12:27;22.80;;;14.15;;
49860;SDS011;35761;48.826;9.238;2023-05-21T02:14:59;18.33;;;15.05;;
49860;SDS011;35761;48.826;9.238;2023-05-21T02:17:30;20.13;;;13.90;;
49860;SDS011;35761;48.826;9.238;2023-05-21T02:20:02;21.55;;;14.85;;
49860;SDS011;35761;48.826;9.238;2023-05-21T02:22:37;18.80;;;14.13;;
49860;SDS011;35761;48.826;9.238;2023-05-21T02:25:11;18.83;;;14.00;;
49860;SDS011;35761;48.826;9.238;2023-05-21T02:27:44;18.17;;;14.50;;
49860;SDS011;35761;48.826;9.238;2023-05-21T02:30:19;23.60;;;14.45;;
49860;SDS011;35761;48.826;9.238;2023-05-21T02:32:50;20.23;;;13.50;;
49860;SDS011;35761;48.826;9.238;2023-05-21T02:35:20;21.38;;;14.60;;
49860;SDS011;35761;48.826;9.238;2023-05-21T02:37:51;19.90;;;15.25;;
49860;SDS011;35761;48.826;9.238;2023-05-21T02:40:27;21.67;;;14.80;;
49860;SDS011;35761;48.826;9.238;2023-05-21T02:42:58;18.55;;;15.30;;
49860;SDS011;35761;48.826;9.238;2023-05-21T02:45:30;19.08;;;14.80;;
49860;SDS011;35761;48.826;9.238;2023-05-21T02:48:01;22.25;;;14.80;;
49860;SDS011;35761;48.826;9.238;2023-05-21T02:50:37;21.13;;;15.13;;
49860;SDS011;35761;48.826;9.238;2023-05-21T02:53:08;21.38;;;15.18;;
49860;SDS011;35761;48.826;9.238;2023-05-21T02:55:41;20.98;;;14.85;;
49860;SDS011;35761;48.826;9.238;2023-05-21T02:58:12;22.67;;;14.68;;
49860;SDS011;35761;48.826;9.238;2023-05-21T03:00:43;21.58;;;15.52;;
49860;SDS011;35761;48.826;9.238;2023-05-21T03:03:16;21.85;;;15.43;;
49860;SDS011;35761;48.826;9.238;2023-05-21T03:05:47;21.05;;;15.05;;
49860;SDS011;35761;48.826;9.238;2023-05-21T03:08:18;21.08;;;15.63;;
49860;SDS011;35761;48.826;9.238;2023-05-21T03:10:53;18.80;;;15.52;;
49860;SDS011;35761;48.826;9.238;2023-05-21T03:13:23;20.15;;;15.40;;
49860;SDS011;35761;48.826;9.238;2023-05-21T03:15:54;20.05;;;15.25;;
49860;SDS011;35761;48.826;9.238;2023-05-21T03:18:24;18.10;;;15.18;;
49860;SDS011;35761;48.826;9.238;2023-05-21T03:20:55;18.92;;;14.68;;
49860;SDS011;35761;48.826;9.238;2023-05-21T03:23:25;21.25;;;14.88;;
49860;SDS011;35761;48.826;9.238;2023-05-21T03:25:58;21.90;;;14.88;;
49860;SDS011;35761;48.826;9.238;2023-05-21T03:28:29;21.00;;;15.57;;
49860;SDS011;35761;48.826;9.238;2023-05-21T03:31:00;21.67;;;14.82;;
49860;SDS011;35761;48.826;9.238;2023-05-21T03:33:34;20.40;;;14.17;;
49860;SDS011;35761;48.826;9.238;2023-05-21T03:36:16;17.02;;;13.98;;
49860;SDS011;35761;48.826;9.238;2023-05-21T03:38:47;20.50;;;16.25;;
49860;SDS011;35761;48.826;9.238;2023-05-21T03:41:20;26.25;;;15.77;;
49860;SDS011;35761;48.826;9.238;2023-05-21T03:44:03;18.48;;;15.35;;
49860;SDS011;35761;48.826;9.238;2023-05-21T03:46:45;22.42;;;15.98;;
49860;SDS011;35761;48.826;9.238;2023-05-21T03:49:24;23.33;;;16.27;;
49860;SDS011;35761;48.826;9.238;2023-05-21T03:52:07;18.83;;;14.82;;
49860;SDS011;35761;48.826;9.238;2023-05-21T03:54:37;20.13;;;14.43;;
49860;SDS011;35761;48.826;9.238;2023-05-21T03:57:11;22.05;;;16.20;;
49860;SDS011;35761;48.826;9.238;2023-05-21T03:59:42;21.08;;;15.82;;
49860;SDS011;35761;48.826;9.238;2023-05-21T04:02:13;18.63;;;15.73;;
49860;SDS011;35761;48.826;9.238;2023-05-21T04:04:44;18.45;;;15.25;;
49860;SDS011;35761;48.826;9.238;2023-05-21T04:07:17;19.65;;;15.20;;
49860;SDS011;35761;48.826;9.238;2023-05-21T04:09:48;20.92;;;15.45;;
49860;SDS011;35761;48.826;9.238;2023-05-21T04:12:21;21.85;;;15.52;;
49860;SDS011;35761;48.826;9.238;2023-05-21T04:14:52;21.77;;;14.95;;
49860;SDS011;35761;48.826;9.238;2023-05-21T04:17:22;20.42;;;14.82;;
49860;SDS011;35761;48.826;9.238;2023-05-21T04:19:54;20.33;;;15.48;;
49860;SDS011;35761;48.826;9.238;2023-05-21T04:22:25;22.38;;;16.17;;
49860;SDS011;35761;48.826;9.238;2023-05-21T04:24:56;20.45;;;16.25;;
49860;SDS011;35761;48.826;9.238;2023-05-21T04:27:35;20.50;;;15.95;;
49860;SDS011;35761;48.826;9.238;2023-05-21T04:30:08;20.80;;;15.43;;
49860;SDS011;35761;48.826;9.238;2023-05-21T04:32:39;21.00;;;16.15;;
49860;SDS011;35761;48.826;9.238;2023-05-21T04:35:11;19.08;;;15.07;;
49860;SDS011;35761;48.826;9.238;2023-05-21T04:37:43;19.13;;;15.55;;
49860;SDS011;35761;48.826;9.238;2023-05-21T04:40:14;20.55;;;15.70;;
49860;SDS011;35761;48.826;9.238;2023-05-21T04:42:52;20.73;;;15.27;;
49860;SDS011;35761;48.826;9.238;2023-05-21T04:45:24;21.52;;;14.55;;
49860;SDS011;35761;48.826;9.238;2023-05-21T04:47:59;24.10;;;15.85;;
49860;SDS011;35761;48.826;9.238;2023-05-21T04:50:30;24.90;;;15.70;;
49860;SDS011;35761;48.826;9.238;2023-05-21T04:53:00;20.83;;;16.38;;
49860;SDS011;35761;48.826;9.238;2023-05-21T04:55:31;20.35;;;15.48;;
49860;SDS011;35761;48.826;9.238;2023-05-21T04:58:08;23.98;;;15.50;;
49860;SDS011;35761;48.826;9.238;2023-05-21T05:00:44;19.20;;;15.20;;
49860;SDS011;35761;48.826;9.238;2023-05-21T05:03:16;20.95;;;16.25;;
49860;SDS011;35761;48.826;9.238;2023-05-21T05:05:47;21.23;;;16.13;;
49860;SDS011;35761;48.826;9.238;2023-05-21T05:08:19;23.98;;;16.42;;
49860;SDS011;35761;48.826;9.238;2023-05-21T05:10:49;24.98;;;15.82;;
49860;SDS011;35761;48.826;9.238;2023-05-21T05:13:22;22.38;;;16.35;;
49860;SDS011;35761;48.826;9.238;2023-05-21T05:15:53;27.63;;;15.90;;
49860;SDS011;35761;48.826;9.238;2023-05-21T05:18:25;21.42;;;15.98;;
49860;SDS011;35761;48.826;9.238;2023-05-21T05:20:55;21.45;;;15.95;;
49860;SDS011;35761;48.826;9.238;2023-05-21T05:23:26;22.73;;;16.48;;
49860;SDS011;35761;48.826;9.238;2023-05-21T05:25:56;20.17;;;15.60;;
49860;SDS011;35761;48.826;9.238;2023-05-21T05:28:29;18.75;;;16.17;;
49860;SDS011;35761;48.826;9.238;2023-05-21T05:31:00;22.55;;;15.50;;
49860;SDS011;35761;48.826;9.238;2023-05-21T05:33:32;20.15;;;15.90;;
49860;SDS011;35761;48.826;9.238;2023-05-21T05:36:03;20.98;;;17.10;;
49860;SDS011;35761;48.826;9.238;2023-05-21T05:38:35;20.02;;;15.65;;
49860;SDS011;35761;48.826;9.238;2023-05-21T05:41:05;18.33;;;16.13;;
49860;SDS011;35761;48.826;9.238;2023-05-21T05:43:38;22.60;;;15.95;;
49860;SDS011;35761;48.826;9.238;2023-05-21T05:46:09;19.80;;;15.35;;
49860;SDS011;35761;48.826;9.238;2023-05-21T05:48:40;21.98;;;17.20;;
49860;SDS011;35761;48.826;9.238;2023-05-21T05:51:10;23.05;;;16.33;;
49860;SDS011;35761;48.826;9.238;2023-05-21T05:53:43;23.42;;;15.65;;
49860;SDS011;35761;48.826;9.238;2023-05-21T05:56:13;20.45;;;16.60;;
49860;SDS011;35761;48.826;9.238;2023-05-21T05:58:47;21.58;;;16.00;;
49860;SDS011;35761;48.826;9.238;2023-05-21T06:01:18;20.98;;;15.65;;
49860;SDS011;35761;48.826;9.238;2023-05-21T06:03:50;24.75;;;16.60;;
49860;SDS011;35761;48.826;9.238;2023-05-21T06:06:23;24.42;;;15.85;;
49860;SDS011;35761;48.826;9.238;2023-05-21T06:08:53;20.70;;;15.40;;
49860;SDS011;35761;48.826;9.238;2023-05-21T06:11:24;22.35;;;16.23;;
49860;SDS011;35761;48.826;9.238;2023-05-21T06:13:57;24.00;;;16.50;;
49860;SDS011;35761;48.826;9.238;2023-05-21T06:16:28;21.70;;;17.13;;
49860;SDS011;35761;48.826;9.238;2023-05-21T06:18:59;22.20;;;16.77;;
49860;SDS011;35761;48.826;9.238;2023-05-21T06:21:30;17.90;;;15.25;;
49860;SDS011;35761;48.826;9.238;2023-05-21T06:24:03;22.65;;;15.95;;
49860;SDS011;35761;48.826;9.238;2023-05-21T06:26:35;21.83;;;15.70;;
49860;SDS011;35761;48.826;9.238;2023-05-21T06:29:08;22.45;;;16.63;;
49860;SDS011;35761;48.826;9.238;2023-05-21T06:31:41;21.40;;;16.70;;
49860;SDS011;35761;48.826;9.238;2023-05-21T06:34:11;20.85;;;16.02;;
49860;SDS011;35761;48.826;9.238;2023-05-21T06:36:42;20.45;;;16.63;;
49860;SDS011;35761;48.826;9.238;2023-05-21T06:39:13;20.27;;;16.65;;
49860;SDS011;35761;48.826;9.238;2023-05-21T06:41:43;20.20;;;16.48;;
49860;SDS011;35761;48.826;9.238;2023-05-21T06:44:42;22.05;;;15.73;;
49860;SDS011;35761;48.826;9.238;2023-05-21T06:47:27;21.23;;;16.17;;
49860;SDS011;35761;48.826;9.238;2023-05-21T06:49:58;23.40;;;16.95;;
49860;SDS011;35761;48.826;9.238;2023-05-21T06:52:29;24.42;;;16.45;;
49860;SDS011;35761;48.826;9.238;2023-05-21T06:55:01;22.80;;;16.42;;
49860;SDS011;35761;48.826;9.238;2023-05-21T06:57:52;19.75;;;15.35;;
49860;SDS011;35761;48.826;9.238;2023-05-21T07:00:25;21.38;;;16.13;;
49860;SDS011;35761;48.826;9.238;2023-05-21T07:02:55;20.25;;;16.13;;
49860;SDS011;35761;48.826;9.238;2023-05-21T07:05:26;20.42;;;16.63;;
49860;SDS011;35761;48.826;9.238;2023-05-21T07:07:57;21.13;;;15.70;;
49860;SDS011;35761;48.826;9.238;2023-05-21T07:10:28;17.85;;;15.30;;
49860;SDS011;35761;48.826;9.238;2023-05-21T07:12:58;21.98;;;16.10;;
49860;SDS011;35761;48.826;9.238;2023-05-21T07:15:32;18.40;;;15.80;;
49860;SDS011;35761;48.826;9.238;2023-05-21T07:18:03;21.25;;;14.98;;
49860;SDS011;35761;48.826;9.238;2023-05-21T07:20:33;23.42;;;15.55;;
49860;SDS011;35761;48.826;9.238;2023-05-21T07:23:05;17.38;;;14.40;;
49860;SDS011;35761;48.826;9.238;2023-05-21T07:25:36;21.08;;;15.82;;
49860;SDS011;35761;48.826;9.238;2023-05-21T07:28:07;19.10;;;15.00;;
49860;SDS011;35761;48.826;9.238;2023-05-21T07:30:40;19.55;;;15.15;;
49860;SDS011;35761;48.826;9.238;2023-05-21T07:33:14;18.85;;;14.60;;
49860;SDS011;35761;48.826;9.238;2023-05-21T07:35:46;17.30;;;14.18;;
49860;SDS011;35761;48.826;9.238;2023-05-21T07:38:18;16.27;;;13.38;;
49860;SDS011;35761;48.826;9.238;2023-05-21T07:40:48;18.50;;;15.30;;
49860;SDS011;35761;48.826;9.238;2023-05-21T07:43:19;19.55;;;13.68;;
49860;SDS011;35761;48.826;9.238;2023-05-21T07:45:53;18.45;;;13.70;;
49860;SDS011;35761;48.826;9.238;2023-05-21T07:48:24;20.52;;;12.73;;
49860;SDS011;35761;48.826;9.238;2023-05-21T07:50:58;17.67;;;14.88;;
49860;SDS011;35761;48.826;9.238;2023-05-21T07:53:30;20.73;;;14.32;;
49860;SDS011;35761;48.826;9.238;2023-05-21T07:56:04;17.23;;;13.07;;
49860;SDS011;35761;48.826;9.238;2023-05-21T07:58:35;17.45;;;11.60;;
49860;SDS011;35761;48.826;9.238;2023-05-21T08:01:09;17.73;;;11.93;;
49860;SDS011;35761;48.826;9.238;2023-05-21T08:03:40;17.80;;;13.48;;
49860;SDS011;35761;48.826;9.238;2023-05-21T08:06:10;15.27;;;12.38;;
49860;SDS011;35761;48.826;9.238;2023-05-21T08:08:41;16.67;;;13.13;;
49860;SDS011;35761;48.826;9.238;2023-05-21T08:11:12;18.15;;;13.25;;
49860;SDS011;35761;48.826;9.238;2023-05-21T08:13:44;15.45;;;12.68;;
49860;SDS011;35761;48.826;9.238;2023-05-21T08:16:17;17.63;;;13.05;;
49860;SDS011;35761;48.826;9.238;2023-05-21T08:18:49;19.90;;;12.50;;
49860;SDS011;35761;48.826;9.238;2023-05-21T08:21:21;20.85;;;13.02;;
49860;SDS011;35761;48.826;9.238;2023-05-21T08:23:52;16.60;;;12.43;;
49860;SDS011;35761;48.826;9.238;2023-05-21T08:26:23;13.45;;;11.35;;
49860;SDS011;35761;48.826;9.238;2023-05-21T08:28:54;16.23;;;10.88;;
49860;SDS011;35761;48.826;9.238;2023-05-21T08:31:27;14.23;;;9.85;;
49860;SDS011;35761;48.826;9.238;2023-05-21T08:33:58;13.20;;;9.60;;
49860;SDS011;35761;48.826;9.238;2023-05-21T08:36:44;14.10;;;9.45;;
49860;SDS011;35761;48.826;9.238;2023-05-21T08:39:34;19.52;;;10.88;;
49860;SDS011;35761;48.826;9.238;2023-05-21T08:42:08;11.98;;;10.05;;
49860;SDS011;35761;48.826;9.238;2023-05-21T08:45:03;14.65;;;10.02;;
49860;SDS011;35761;48.826;9.238;2023-05-21T08:47:40;12.15;;;9.88;;
49860;SDS011;35761;48.826;9.238;2023-05-21T08:50:15;13.73;;;9.68;;
49860;SDS011;35761;48.826;9.238;2023-05-21T08:52:46;12.07;;;9.27;;
49860;SDS011;35761;48.826;9.238;2023-05-21T08:55:18;12.93;;;9.00;;
49860;SDS011;35761;48.826;9.238;2023-05-21T08:57:49;16.73;;;9.82;;
49860;SDS011;35761;48.826;9.238;2023-05-21T09:00:24;12.50;;;9.75;;
49860;SDS011;35761;48.826;9.238;2023-05-21T09:02:57;12.77;;;8.65;;
49860;SDS011;35761;48.826;9.238;2023-05-21T09:05:33;12.93;;;8.60;;
49860;SDS011;35761;48.826;9.238;2023-05-21T09:08:10;14.93;;;8.20;;
49860;SDS011;35761;48.826;9.238;2023-05-21T09:10:57;14.75;;;8.75;;
49860;SDS011;35761;48.826;9.238;2023-05-21T09:13:35;13.50;;;9.85;;
49860;SDS011;35761;48.826;9.238;2023-05-21T09:16:12;13.73;;;9.85;;
49860;SDS011;35761;48.826;9.238;2023-05-21T09:18:46;15.48;;;9.20;;
49860;SDS011;35761;48.826;9.238;2023-05-21T09:21:24;13.85;;;8.98;;
49860;SDS011;35761;48.826;9.238;2023-05-21T09:24:10;10.38;;;8.98;;
49860;SDS011;35761;48.826;9.238;2023-05-21T09:26:43;12.73;;;9.52;;
49860;SDS011;35761;48.826;9.238;2023-05-21T09:29:13;17.20;;;10.75;;
49860;SDS011;35761;48.826;9.238;2023-05-21T09:31:44;14.50;;;11.25;;
49860;SDS011;35761;48.826;9.238;2023-05-21T09:34:18;14.15;;;9.23;;
49860;SDS011;35761;48.826;9.238;2023-05-21T09:36:51;11.95;;;8.88;;
49860;SDS011;35761;48.826;9.238;2023-05-21T09:39:27;12.98;;;9.30;;
49860;SDS011;35761;48.826;9.238;2023-05-21T09:42:01;16.60;;;9.90;;
49860;SDS011;35761;48.826;9.238;2023-05-21T09:44:33;17.15;;;9.85;;
49860;SDS011;35761;48.826;9.238;2023-05-21T09:47:04;11.30;;;9.20;;
49860;SDS011;35761;48.826;9.238;2023-05-21T09:49:38;14.95;;;9.38;;
49860;SDS011;35761;48.826;9.238;2023-05-21T09:52:12;9.77;;;7.85;;
49860;SDS011;35761;48.826;9.238;2023-05-21T09:54:42;12.60;;;9.07;;
49860;SDS011;35761;48.826;9.238;2023-05-21T09:57:14;13.40;;;10.15;;
49860;SDS011;35761;48.826;9.238;2023-05-21T09:59:44;13.15;;;10.27;;
49860;SDS011;35761;48.826;9.238;2023-05-21T10:04:55;11.50;;;8.52;;
49860;SDS011;35761;48.826;9.238;2023-05-21T10:07:26;12.40;;;8.63;;
49860;SDS011;35761;48.826;9.238;2023-05-21T10:09:57;14.73;;;9.23;;
49860;SDS011;35761;48.826;9.238;2023-05-21T10:12:30;13.05;;;8.70;;
49860;SDS011;35761;48.826;9.238;2023-05-21T10:15:02;12.38;;;8.65;;
49860;SDS011;35761;48.826;9.238;2023-05-21T10:17:37;17.38;;;8.43;;
49860;SDS011;35761;48.826;9.238;2023-05-21T10:20:12;13.02;;;8.20;;
49860;SDS011;35761;48.826;9.238;2023-05-21T10:22:43;12.73;;;7.97;;
49860;SDS011;35761;48.826;9.238;2023-05-21T10:25:14;9.63;;;7.22;;
49860;SDS011;35761;48.826;9.238;2023-05-21T10:27:45;12.98;;;7.97;;
49860;SDS011;35761;48.826;9.238;2023-05-21T10:30:16;10.48;;;8.50;;
49860;SDS011;35761;48.826;9.238;2023-05-21T10:32:48;14.05;;;9.55;;
49860;SDS011;35761;48.826;9.238;2023-05-21T10:35:21;15.73;;;8.73;;
49860;SDS011;35761;48.826;9.238;2023-05-21T10:37:53;10.43;;;8.20;;
49860;SDS011;35761;48.826;9.238;2023-05-21T10:40:26;12.60;;;7.60;;
49860;SDS011;35761;48.826;9.238;2023-05-21T10:43:07;11.02;;;8.50;;
49860;SDS011;35761;48.826;9.238;2023-05-21T10:49:20;11.32;;;7.30;;
49860;SDS011;35761;48.826;9.238;2023-05-21T10:52:12;13.07;;;7.40;;
49860;SDS011;35761;48.826;9.238;2023-05-21T10:55:03;18.02;;;7.53;;
49860;SDS011;35761;48.826;9.238;2023-05-21T10:57:52;11.38;;;6.85;;
49860;SDS011;35761;48.826;9.238;2023-05-21T11:01:00;10.63;;;8.00;;
49860;SDS011;35761;48.826;9.238;2023-05-21T11:03:31;9.10;;;6.57;;
49860;SDS011;35761;48.826;9.238;2023-05-21T11:06:03;8.07;;;6.70;;
49860;SDS011;35761;48.826;9.238;2023-05-21T11:08:37;8.65;;;6.45;;
49860;SDS011;35761;48.826;9.238;2023-05-21T11:17:11;8.23;;;7.10;;
49860;SDS011;35761;48.826;9.238;2023-05-21T11:19:45;12.65;;;6.13;;
49860;SDS011;35761;48.826;9.238;2023-05-21T11:22:20;10.02;;;6.28;;
49860;SDS011;35761;48.826;9.238;2023-05-21T11:24:55;7.57;;;6.53;;
49860;SDS011;35761;48.826;9.238;2023-05-21T11:27:30;8.63;;;6.60;;
49860;SDS011;35761;48.826;9.238;2023-05-21T11:30:03;10.13;;;7.35;;
49860;SDS011;35761;48.826;9.238;2023-05-21T11:32:38;14.85;;;6.53;;
49860;SDS011;35761;48.826;9.238;2023-05-21T11:35:29;9.18;;;6.97;;
49860;SDS011;35761;48.826;9.238;2023-05-21T11:38:05;14.50;;;7.70;;
49860;SDS011;35761;48.826;9.238;2023-05-21T11:40:44;9.87;;;6.40;;
49860;SDS011;35761;48.826;9.238;2023-05-21T11:43:21;8.90;;;6.80;;
49860;SDS011;35761;48.826;9.238;2023-05-21T11:45:51;11.93;;;7.80;;
49860;SDS011;35761;48.826;9.238;2023-05-21T11:48:23;11.32;;;7.22;;
49860;SDS011;35761;48.826;9.238;2023-05-21T11:50:56;9.63;;;6.43;;
49860;SDS011;35761;48.826;9.238;2023-05-21T11:53:28;9.75;;;6.03;;
49860;SDS011;35761;48.826;9.238;2023-05-21T11:56:02;8.43;;;6.30;;
49860;SDS011;35761;48.826;9.238;2023-05-21T11:58:35;11.02;;;6.43;;
49860;SDS011;35761;48.826;9.238;2023-05-21T12:01:06;8.55;;;6.10;;
49860;SDS011;35761;48.826;9.238;2023-05-21T12:03:36;13.18;;;10.07;;
49860;SDS011;35761;48.826;9.238;2023-05-21T12:06:07;9.90;;;6.07;;
49860;SDS011;35761;48.826;9.238;2023-05-21T12:08:37;8.82;;;6.07;;
49860;SDS011;35761;48.826;9.238;2023-05-21T12:11:11;12.00;;;6.22;;
49860;SDS011;35761;48.826;9.238;2023-05-21T12:13:42;7.75;;;6.22;;
49860;SDS011;35761;48.826;9.238;2023-05-21T12:16:12;7.40;;;5.65;;
49860;SDS011;35761;48.826;9.238;2023-05-21T12:18:43;8.57;;;6.18;;
49860;SDS011;35761;48.826;9.238;2023-05-21T12:21:14;10.10;;;5.40;;
49860;SDS011;35761;48.826;9.238;2023-05-21T12:23:45;9.77;;;5.53;;
49860;SDS011;35761;48.826;9.238;2023-05-21T12:26:18;9.05;;;5.85;;
49860;SDS011;35761;48.826;9.238;2023-05-21T12:28:51;7.63;;;5.93;;
49860;SDS011;35761;48.826;9.238;2023-05-21T12:31:23;8.38;;;5.50;;
49860;SDS011;35761;48.826;9.238;2023-05-21T12:33:53;6.97;;;5.50;;
49860;SDS011;35761;48.826;9.238;2023-05-21T12:36:25;8.10;;;5.38;;
49860;SDS011;35761;48.826;9.238;2023-05-21T12:38:57;11.77;;;5.88;;
49860;SDS011;35761;48.826;9.238;2023-05-21T12:41:30;10.95;;;5.45;;
49860;SDS011;35761;48.826;9.238;2023-05-21T12:44:01;12.80;;;6.30;;
49860;SDS011;35761;48.826;9.238;2023-05-21T12:46:34;6.72;;;4.88;;
49860;SDS011;35761;48.826;9.238;2023-05-21T12:49:05;12.40;;;5.65;;
49860;SDS011;35761;48.826;9.238;2023-05-21T12:51:38;9.13;;;5.70;;
49860;SDS011;35761;48.826;9.238;2023-05-21T12:54:12;7.97;;;5.78;;
49860;SDS011;35761;48.826;9.238;2023-05-21T12:56:45;6.78;;;5.32;;
49860;SDS011;35761;48.826;9.238;2023-05-21T12:59:16;8.30;;;5.03;;
49860;SDS011;35761;48.826;9.238;2023-05-21T13:01:46;6.75;;;4.32;;
49860;SDS011;35761;48.826;9.238;2023-05-21T13:04:17;8.20;;;4.60;;
49860;SDS011;35761;48.826;9.238;2023-05-21T13:06:49;6.75;;;4.40;;
49860;SDS011;35761;48.826;9.238;2023-05-21T13:09:19;8.68;;;4.05;;
49860;SDS011;35761;48.826;9.238;2023-05-21T13:11:52;8.30;;;3.75;;
49860;SDS011;35761;48.826;9.238;2023-05-21T13:14:23;5.75;;;4.18;;
49860;SDS011;35761;48.826;9.238;2023-05-21T13:16:53;9.55;;;4.38;;
49860;SDS011;35761;48.826;9.238;2023-05-21T13:19:24;9.20;;;7.32;;
49860;SDS011;35761;48.826;9.238;2023-05-21T13:21:55;6.80;;;4.00;;
49860;SDS011;35761;48.826;9.238;2023-05-21T13:24:26;7.03;;;4.35;;
49860;SDS011;35761;48.826;9.238;2023-05-21T13:26:59;5.57;;;3.90;;
49860;SDS011;35761;48.826;9.238;2023-05-21T13:29:29;5.30;;;4.13;;
49860;SDS011;35761;48.826;9.238;2023-05-21T13:32:01;9.10;;;4.43;;
49860;SDS011;35761;48.826;9.238;2023-05-21T13:34:32;11.48;;;4.57;;
49860;SDS011;35761;48.826;9.238;2023-05-21T13:37:02;10.55;;;5.88;;
49860;SDS011;35761;48.826;9.238;2023-05-21T13:39:32;6.88;;;4.47;;
49860;SDS011;35761;48.826;9.238;2023-05-21T13:42:06;7.47;;;4.30;;
49860;SDS011;35761;48.826;9.238;2023-05-21T13:44:36;6.93;;;4.43;;
49860;SDS011;35761;48.826;9.238;2023-05-21T13:47:07;7.30;;;4.40;;
49860;SDS011;35761;48.826;9.238;2023-05-21T13:49:38;9.93;;;6.22;;
49860;SDS011;35761;48.826;9.238;2023-05-21T13:52:08;12.15;;;6.07;;
49860;SDS011;35761;48.826;9.238;2023-05-21T13:54:40;11.70;;;8.32;;
49860;SDS011;35761;48.826;9.238;2023-05-21T13:57:14;15.95;;;11.02;;
49860;SDS011;35761;48.826;9.238;2023-05-21T13:59:45;5.10;;;4.15;;
49860;SDS011;35761;48.826;9.238;2023-05-21T14:02:16;10.68;;;6.10;;
49860;SDS011;35761;48.826;9.238;2023-05-21T14:04:47;6.38;;;4.28;;
49860;SDS011;35761;48.826;9.238;2023-05-21T14:07:17;6.82;;;4.47;;
49860;SDS011;35761;48.826;9.238;2023-05-21T14:09:48;4.68;;;3.45;;
49860;SDS011;35761;48.826;9.238;2023-05-21T14:12:21;6.20;;;3.60;;
49860;SDS011;35761;48.826;9.238;2023-05-21T14:14:52;6.25;;;3.80;;
49860;SDS011;35761;48.826;9.238;2023-05-21T14:17:23;9.25;;;4.10;;
49860;SDS011;35761;48.826;9.238;2023-05-21T14:19:53;7.20;;;4.05;;
49860;SDS011;35761;48.826;9.238;2023-05-21T14:22:24;6.90;;;3.85;;
49860;SDS011;35761;48.826;9.238;2023-05-21T14:24:54;4.13;;;3.22;;
49860;SDS011;35761;48.826;9.238;2023-05-21T14:27:27;7.05;;;4.40;;
49860;SDS011;35761;48.826;9.238;2023-05-21T14:29:58;7.50;;;4.47;;
49860;SDS011;35761;48.826;9.238;2023-05-21T14:32:28;6.20;;;4.00;;
49860;SDS011;35761;48.826;9.238;2023-05-21T14:34:59;9.32;;;3.80;;
49860;SDS011;35761;48.826;9.238;2023-05-21T14:37:29;8.73;;;4.80;;
49860;SDS011;35761;48.826;9.238;2023-05-21T14:40:00;8.10;;;5.85;;
49860;SDS011;35761;48.826;9.238;2023-05-21T14:42:33;18.02;;;12.95;;
49860;SDS011;35761;48.826;9.238;2023-05-21T14:45:04;6.15;;;4.65;;
49860;SDS011;35761;48.826;9.238;2023-05-21T14:47:45;6.13;;;3.92;;
49860;SDS011;35761;48.826;9.238;2023-05-21T14:50:16;10.27;;;3.92;;
49860;SDS011;35761;48.826;9.238;2023-05-21T14:52:47;7.35;;;3.80;;
49860;SDS011;35761;48.826;9.238;2023-05-21T14:55:17;6.97;;;4.03;;
49860;SDS011;35761;48.826;9.238;2023-05-21T14:57:51;7.28;;;4.00;;
49860;SDS011;35761;48.826;9.238;2023-05-21T15:00:21;6.53;;;3.80;;
49860;SDS011;35761;48.826;9.238;2023-05-21T15:02:52;7.53;;;4.30;;
49860;SDS011;35761;48.826;9.238;2023-05-21T15:05:23;13.10;;;4.65;;
49860;SDS011;35761;48.826;9.238;2023-05-21T15:07:57;7.88;;;4.25;;
49860;SDS011;35761;48.826;9.238;2023-05-21T15:10:29;8.27;;;4.40;;
49860;SDS011;35761;48.826;9.238;2023-05-21T15:13:02;5.35;;;4.30;;
49860;SDS011;35761;48.826;9.238;2023-05-21T15:15:33;5.73;;;4.27;;